createdAt,value
2022-09-24T00:04:12.086Z,8.83
2022-09-24T00:09:16.386Z,7.77
2022-09-24T00:14:18.909Z,10.43
2022-09-24T00:19:20.570Z,7.37
2022-09-24T00:24:41.191Z,8.87
2022-09-24T00:29:42.818Z,8.80
2022-09-24T00:34:44.489Z,9.47
2022-09-24T00:39:46.432Z,9.00
2022-09-24T00:44:54.174Z,8.50
2022-09-24T00:50:18.477Z,8.90
2022-09-24T00:55:22.078Z,9.03
2022-09-24T01:00:24.132Z,11.93
2022-09-24T01:05:25.841Z,10.53
2022-09-24T01:10:51.026Z,9.10
2022-09-24T01:16:04.835Z,8.30
2022-09-24T01:21:15.528Z,8.43
2022-09-24T01:26:32.321Z,8.30
2022-09-24T01:31:46.992Z,10.73
2022-09-24T01:36:50.099Z,9.27
2022-09-24T01:41:52.135Z,7.93
2022-09-24T01:46:54.347Z,8.37
2022-09-24T01:51:59.467Z,8.50
2022-09-24T01:57:09.840Z,11.23
2022-09-24T02:02:36.133Z,8.70
2022-09-24T02:07:45.340Z,8.67
2022-09-24T02:12:52.531Z,10.07
2022-09-24T02:17:58.101Z,8.20
2022-09-24T02:22:59.913Z,9.53
2022-09-24T02:28:03.232Z,9.73
2022-09-24T02:33:27.505Z,9.80
2022-09-24T02:38:29.254Z,9.07
2022-09-24T02:43:30.897Z,8.90
2022-09-24T02:48:32.638Z,12.73
2022-09-24T02:53:34.679Z,7.80
2022-09-24T02:58:37.426Z,8.27
2022-09-24T03:03:39.106Z,10.57
2022-09-24T03:08:44.704Z,11.77
2022-09-24T03:13:46.658Z,13.07
2022-09-24T03:18:48.494Z,9.37
2022-09-24T03:23:50.439Z,11.50
2022-09-24T03:28:52.243Z,11.90
2022-09-24T03:33:54.481Z,11.50
2022-09-24T03:38:57.593Z,10.73
2022-09-24T03:43:59.351Z,12.40
2022-09-24T03:49:01.013Z,13.40
2022-09-24T03:54:02.792Z,13.77
2022-09-24T03:59:04.423Z,13.30
2022-09-24T04:04:06.169Z,12.80
2022-09-24T04:09:08.003Z,11.53
2022-09-24T04:14:10.040Z,11.50
2022-09-24T04:19:12.849Z,12.30
2022-09-24T04:24:14.623Z,15.37
2022-09-24T04:29:16.754Z,13.07
2022-09-24T04:34:18.453Z,14.57
2022-09-24T04:39:22.418Z,13.87
2022-09-24T04:44:24.167Z,15.07
2022-09-24T04:49:25.970Z,15.03
2022-09-24T04:54:30.686Z,13.87
2022-09-24T04:59:32.472Z,14.67
2022-09-24T05:10:09.502Z,17.17
2022-09-24T05:15:16.646Z,18.70
2022-09-24T05:20:18.525Z,19.20
2022-09-24T05:25:21.749Z,16.57
2022-09-24T05:30:25.082Z,18.27
2022-09-24T05:35:26.821Z,20.17
2022-09-24T05:40:52.180Z,23.97
2022-09-24T05:46:08.619Z,18.63
2022-09-24T05:51:26.711Z,20.10
2022-09-24T05:56:28.577Z,21.63
2022-09-24T06:01:42.222Z,23.47
2022-09-24T06:06:46.370Z,24.70
2022-09-24T06:11:51.021Z,23.90
2022-09-24T06:17:39.554Z,22.77
2022-09-24T06:23:02.554Z,26.37
2022-09-24T06:28:05.166Z,26.03
2022-09-24T06:39:16.382Z,26.67
2022-09-24T06:44:23.399Z,25.27
2022-09-24T06:55:19.528Z,29.97
2022-09-24T07:06:00.424Z,28.60
2022-09-24T07:11:02.646Z,29.93
2022-09-24T07:16:04.518Z,29.13
2022-09-24T07:21:29.967Z,32.77
2022-09-24T07:26:52.533Z,31.00
2022-09-24T07:32:30.106Z,30.43
2022-09-24T07:38:53.092Z,29.03
2022-09-24T07:44:17.633Z,31.37
2022-09-24T08:00:13.035Z,36.37
2022-09-24T08:05:16.671Z,35.53
2022-09-24T08:16:08.380Z,35.03
2022-09-24T08:22:05.424Z,37.50
2022-09-24T08:27:28.045Z,36.43
2022-09-24T08:32:30.106Z,30.43
2022-09-24T08:37:34.193Z,33.53
2022-09-24T08:43:10.747Z,37.27
2022-09-24T08:48:21.011Z,33.60
2022-09-24T08:53:31.608Z,30.60
2022-09-24T08:58:54.786Z,32.77
2022-09-24T09:04:05.401Z,33.20
2022-09-24T09:09:16.932Z,28.50
2022-09-24T09:14:49.481Z,29.50
2022-09-24T09:19:58.988Z,28.30
2022-09-24T09:25:11.410Z,31.00
2022-09-24T09:30:15.008Z,34.43
2022-09-24T09:35:29.143Z,34.57
2022-09-24T09:40:48.869Z,30.50
2022-09-24T09:45:56.848Z,27.00
2022-09-24T09:51:24.186Z,26.10
2022-09-24T09:56:48.515Z,26.50
2022-09-24T10:02:03.760Z,26.47
2022-09-24T10:13:21.653Z,23.00
2022-09-24T10:19:29.795Z,23.27
2022-09-24T10:24:33.990Z,21.40
2022-09-24T10:48:50.818Z,20.30
2022-09-24T10:54:11.401Z,19.60
2022-09-24T10:59:43.216Z,19.70
2022-09-24T11:04:59.395Z,21.77
2022-09-24T11:10:40.665Z,21.00
2022-09-24T11:15:58.806Z,21.20
2022-09-24T11:21:03.233Z,19.40
2022-09-24T11:26:08.001Z,17.93
2022-09-24T11:31:30.821Z,18.17
2022-09-24T11:36:51.614Z,17.07
2022-09-24T11:42:21.822Z,17.50
2022-09-24T11:47:46.207Z,18.33
2022-09-24T11:52:50.540Z,25.23
2022-09-24T11:58:16.652Z,24.43
2022-09-24T12:03:26.404Z,23.37
2022-09-24T12:08:47.419Z,23.83
2022-09-24T12:14:29.871Z,22.37
2022-09-24T12:19:42.233Z,26.13
2022-09-24T12:24:52.007Z,26.80
2022-09-24T12:30:41.939Z,25.53
2022-09-24T12:36:04.637Z,23.73
2022-09-24T12:41:25.698Z,23.00
2022-09-24T12:46:51.889Z,18.63
2022-09-24T12:52:02.027Z,17.27
2022-09-24T12:57:14.366Z,13.57
2022-09-24T13:02:24.673Z,19.70
2022-09-24T13:07:33.782Z,14.53
2022-09-24T13:12:36.057Z,14.70
2022-09-24T13:17:40.496Z,12.90
2022-09-24T13:22:42.236Z,17.93
2022-09-24T13:27:45.212Z,16.33
2022-09-24T13:32:58.678Z,13.33
2022-09-24T13:38:27.481Z,12.97
2022-09-24T13:43:39.738Z,12.53
2022-09-24T13:48:51.365Z,11.90
2022-09-24T13:54:07.019Z,12.83
2022-09-24T13:59:13.151Z,10.80
2022-09-24T14:04:17.809Z,12.07
2022-09-24T14:09:33.816Z,13.03
2022-09-24T14:14:35.974Z,11.97
2022-09-24T14:19:37.794Z,10.50
2022-09-24T14:25:08.558Z,10.73
2022-09-24T14:30:24.387Z,12.63
2022-09-24T14:35:33.877Z,15.90
2022-09-24T14:40:44.141Z,11.27
2022-09-24T14:45:46.981Z,11.93
2022-09-24T14:50:48.699Z,11.07
2022-09-24T14:55:50.582Z,13.77
2022-09-24T15:01:19.664Z,12.13
2022-09-24T15:06:32.462Z,11.90
2022-09-24T15:11:43.561Z,12.20
2022-09-24T15:16:47.816Z,11.03
2022-09-24T15:21:54.635Z,10.87
2022-09-24T15:27:05.945Z,11.33
2022-09-24T15:32:18.832Z,9.90
2022-09-24T15:37:29.716Z,11.87
2022-09-24T15:47:57.327Z,11.50
2022-09-24T15:53:00.338Z,11.77
2022-09-24T15:58:02.202Z,10.60
2022-09-24T16:03:04.185Z,10.93
2022-09-24T16:08:05.931Z,9.77
2022-09-24T16:13:08.096Z,10.80
2022-09-24T16:18:13.636Z,9.77
2022-09-24T16:23:16.420Z,11.27
2022-09-24T16:28:18.124Z,11.07
2022-09-24T16:33:21.144Z,12.83
2022-09-24T16:38:23.435Z,11.20
2022-09-24T16:43:25.203Z,12.00
2022-09-24T16:48:26.857Z,9.67
2022-09-24T16:53:28.665Z,11.00
2022-09-24T16:58:32.238Z,11.40
2022-09-24T17:03:34.288Z,14.27
2022-09-24T17:08:55.028Z,13.07
2022-09-24T17:13:58.552Z,11.77
2022-09-24T17:19:02.637Z,11.53
2022-09-24T17:24:05.759Z,10.47
2022-09-24T17:29:07.665Z,10.67
2022-09-24T17:34:15.260Z,11.37
2022-09-24T17:39:19.721Z,12.53
2022-09-24T17:44:21.539Z,12.03
2022-09-24T17:49:30.089Z,12.20
2022-09-24T17:54:31.918Z,13.03
2022-09-24T17:59:33.590Z,9.40
2022-09-24T18:04:38.208Z,11.40
2022-09-24T18:09:40.037Z,15.13
2022-09-24T18:14:41.974Z,14.87
2022-09-24T18:19:43.687Z,13.87
2022-09-24T18:24:47.479Z,13.40
2022-09-24T18:29:49.230Z,13.03
2022-09-24T18:34:50.881Z,17.33
2022-09-24T18:39:52.645Z,15.83
2022-09-24T18:44:54.383Z,14.30
2022-09-24T18:49:56.116Z,15.13
2022-09-24T18:54:58.003Z,13.47
2022-09-24T18:59:59.691Z,14.23
2022-09-24T19:05:01.667Z,13.93
2022-09-24T19:10:03.373Z,13.47
2022-09-24T19:15:05.952Z,13.27
2022-09-24T19:20:08.205Z,11.00
2022-09-24T19:25:10.169Z,10.97
2022-09-24T19:30:12.502Z,11.43
2022-09-24T19:35:14.326Z,10.70
2022-09-24T19:40:16.328Z,10.10
2022-09-24T19:45:18.259Z,14.27
2022-09-24T19:50:23.963Z,11.57
2022-09-24T19:55:28.665Z,11.30
2022-09-24T20:00:30.520Z,10.83
2022-09-24T20:05:32.301Z,12.60
2022-09-24T20:16:07.149Z,12.47
2022-09-24T20:21:15.562Z,12.90
2022-09-24T20:26:39.195Z,14.50
2022-09-24T20:31:54.540Z,12.53
2022-09-24T20:37:00.859Z,23.23
2022-09-24T20:42:03.789Z,12.73
2022-09-24T20:47:05.568Z,13.57
2022-09-24T20:52:07.769Z,14.97
2022-09-24T20:57:09.605Z,13.83
2022-09-24T21:02:12.111Z,14.00
2022-09-24T21:07:13.839Z,13.53
2022-09-24T21:12:15.494Z,13.40
2022-09-24T21:17:18.526Z,14.57
2022-09-24T21:22:21.047Z,14.90
2022-09-24T21:27:22.676Z,14.90
2022-09-24T21:32:24.346Z,18.87
2022-09-24T21:37:27.059Z,17.90
2022-09-24T21:42:32.065Z,16.20
2022-09-24T21:47:33.767Z,15.63
2022-09-24T21:52:35.406Z,18.50
2022-09-24T21:57:37.021Z,17.33
2022-09-24T22:02:43.280Z,18.07
2022-09-24T22:07:46.537Z,17.13
2022-09-24T22:12:48.191Z,18.23
2022-09-24T22:17:50.746Z,17.83
2022-09-24T22:22:52.445Z,15.43
2022-09-24T22:27:54.646Z,15.50
2022-09-24T22:32:56.676Z,19.67
2022-09-24T22:37:58.522Z,18.30
2022-09-24T22:43:00.148Z,19.27
2022-09-24T22:48:03.157Z,19.90
2022-09-24T22:53:04.860Z,19.17
2022-09-24T22:58:06.746Z,19.97
2022-09-24T23:03:08.448Z,22.13
2022-09-24T23:08:10.071Z,21.43
2022-09-24T23:13:11.753Z,21.87
2022-09-24T23:18:13.557Z,22.90
2022-09-24T23:23:15.340Z,22.33
2022-09-24T23:28:16.989Z,22.53
2022-09-24T23:33:37.546Z,24.30
2022-09-24T23:38:40.307Z,24.77
2022-09-24T23:43:42.588Z,22.93
2022-09-24T23:48:44.760Z,28.83
2022-09-24T23:53:46.964Z,22.33
2022-09-24T23:58:48.760Z,26.40
